Aérodrome :
LOGIN :

S'inscrire | Disclaimer

   EN    FR    IT 

 










Légende :    VFR   VFR Marginal   IFR   IFR Intensif   IFR Très Intensif
Visi : 
Plafond : 
>= 8 km
>= 3000ft
5 à 8 km
1000 à 3000 ft
1500m à 5 km
500 à 1000 ft
800 à 1500m
200 à 500 ft
< 800m
< 200 ft
Symboles :   Orages  Brouillard  Fortes neiges  Fortes précipitations  Vent > 20 kt
SIGMETs :   Divers  Orages  Givrage  Turbulence  Onde Orograph.  Cendres Volcan.






- Altitude de l'aérodrome : 285 ft
- Code IATA : OZP


LEMO - Sevilla Moron

DERNIER METAR :
  • 040900Z 25010KT 200V290 9999 FEW018 BKN036 OVC045 21/15 Q1012 NOSIG

METARs EXPIRÉS :
  • 040800Z 23007KT 200V260 9999 FEW014 BKN044 19/15 Q1011 NOSIG
  • 040700Z 25008KT 210V290 9999 BKN041 18/15 Q1011 NOSIG

TAF COR TAF LEMO
Valide du 04 à 09h jusqu'au 04 à 18h UTC


040850Z 0409/0418 23009KT 9999 SCT020 SCT040
PROB40
TEMPO 0409/0416 4000 SHRA BKN012 SCT020TCU
PROB30
TEMPO 0412/0416 23015G25KT 2000 TSRA SCT020CB



MET'MAP, la Météo Aéronautique d'un coup d'oeil ! - Copyright ORBIFLY Décembre 2007 - Disclaimer

ORBIFLY MET'MAP TEAM :

Programmation & Développement : Alexandra Zaïnal
Sur une idée originale de : Baudouin d'Aumeries
Assistance à la programmation : Marc-Olivier Méhu
Soutien technique & logistique : Manuel Goepfert

Contact : metmap@orbifly.com




SOURCES & CREDITS :

   NOAA